DMND77 KLAX-KSAN
Flight info
| Callsign | DMND77 |
|---|---|
| Flight time | N/A |
| Altitude | 13000 |
| Route | MZB |
| Aircraft | A20N/M-SDE2E3FGIRWY/L |
Departure
| Time | 2026-04-24 03:01 |
|---|---|
| Airport | Los Angeles International Airport (KLAX) |
Arrival
| Time | N/A |
|---|---|
| Airport | San Diego International Airport (KSAN) |
| Time | Latitude | Longitude | Altitude | Speed | Heading |
|---|---|---|---|---|---|
| 2026-04-24 02:00 | 33.94103 | -118.40750 | 125 ft | 0 kts | 66° |
| 2026-04-24 02:43 | 33.94101 | -118.40754 | 124 ft | 3 kts | 66° |
| 2026-04-24 02:43 | 33.94094 | -118.40775 | 127 ft | 3 kts | 66° |
| 2026-04-24 02:44 | 33.94086 | -118.40796 | 126 ft | 3 kts | 66° |
| 2026-04-24 02:44 | 33.94078 | -118.40816 | 126 ft | 3 kts | 66° |
| 2026-04-24 02:44 | 33.94078 | -118.40837 | 128 ft | 3 kts | 139° |
| 2026-04-24 02:44 | 33.94084 | -118.40842 | 125 ft | 0 kts | 157° |
| 2026-04-24 02:47 | 33.94083 | -118.40841 | 127 ft | 1 kts | 157° |
| 2026-04-24 02:48 | 33.94075 | -118.40837 | 128 ft | 2 kts | 157° |
| 2026-04-24 02:48 | 33.94053 | -118.40826 | 126 ft | 3 kts | 157° |
| 2026-04-24 02:52 | 33.94045 | -118.40824 | 126 ft | 5 kts | 169° |
| 2026-04-24 02:52 | 33.94003 | -118.40817 | 126 ft | 7 kts | 172° |
| 2026-04-24 02:52 | 33.93947 | -118.40808 | 126 ft | 10 kts | 172° |
| 2026-04-24 02:52 | 33.93885 | -118.40775 | 125 ft | 10 kts | 138° |
| 2026-04-24 02:53 | 33.93851 | -118.40697 | 127 ft | 11 kts | 98° |
| 2026-04-24 02:53 | 33.93856 | -118.40600 | 126 ft | 12 kts | 82° |
| 2026-04-24 02:53 | 33.93870 | -118.40491 | 125 ft | 14 kts | 82° |
| 2026-04-24 02:53 | 33.93883 | -118.40371 | 124 ft | 15 kts | 83° |
| 2026-04-24 02:54 | 33.93905 | -118.40154 | 128 ft | 26 kts | 84° |
| 2026-04-24 02:54 | 33.93926 | -118.39938 | 124 ft | 26 kts | 83° |
| 2026-04-24 02:54 | 33.93948 | -118.39713 | 129 ft | 28 kts | 83° |
| 2026-04-24 02:54 | 33.93971 | -118.39486 | 126 ft | 19 kts | 83° |
| 2026-04-24 02:55 | 33.93978 | -118.39421 | 129 ft | 8 kts | 80° |
| 2026-04-24 02:55 | 33.93986 | -118.39354 | 127 ft | 9 kts | 83° |
| 2026-04-24 02:55 | 33.93995 | -118.39275 | 129 ft | 10 kts | 81° |
| 2026-04-24 02:55 | 33.94020 | -118.39220 | 128 ft | 7 kts | 43° |
| 2026-04-24 02:56 | 33.94045 | -118.39163 | 127 ft | 9 kts | 76° |
| 2026-04-24 02:56 | 33.94055 | -118.39090 | 126 ft | 9 kts | 85° |
| 2026-04-24 02:56 | 33.94058 | -118.39009 | 129 ft | 10 kts | 89° |
| 2026-04-24 02:56 | 33.94066 | -118.38918 | 129 ft | 12 kts | 82° |
| 2026-04-24 02:57 | 33.94078 | -118.38815 | 129 ft | 13 kts | 82° |
| 2026-04-24 02:57 | 33.94089 | -118.38700 | 127 ft | 15 kts | 84° |
| 2026-04-24 02:57 | 33.94100 | -118.38571 | 127 ft | 16 kts | 84° |
| 2026-04-24 02:57 | 33.94111 | -118.38435 | 127 ft | 14 kts | 84° |
| 2026-04-24 02:58 | 33.94091 | -118.38354 | 123 ft | 9 kts | 145° |
| 2026-04-24 02:58 | 33.94050 | -118.38336 | 126 ft | 0 kts | 169° |
| 2026-04-24 02:59 | 33.94024 | -118.38330 | 126 ft | 6 kts | 169° |
| 2026-04-24 02:59 | 33.93973 | -118.38336 | 126 ft | 8 kts | 211° |
| 2026-04-24 03:00 | 33.93951 | -118.38397 | 128 ft | 7 kts | 263° |
| 2026-04-24 03:00 | 33.93949 | -118.38424 | 129 ft | 0 kts | 271° |
| 2026-04-24 03:00 | 33.93949 | -118.38428 | 127 ft | 10 kts | 271° |
| 2026-04-24 03:01 | 33.93903 | -118.38942 | 129 ft | 113 kts | 262° |
| 2026-04-24 03:01 | 33.93757 | -118.40254 | 311 ft | 186 kts | 263° |
| 2026-04-24 03:01 | 33.93581 | -118.41787 | 1455 ft | 181 kts | 261° |
| 2026-04-24 03:01 | 33.93347 | -118.43220 | 2757 ft | 171 kts | 255° |
| 2026-04-24 03:02 | 33.92908 | -118.44532 | 4032 ft | 168 kts | 239° |
| 2026-04-24 03:02 | 33.92150 | -118.45562 | 5270 ft | 162 kts | 218° |
| 2026-04-24 03:02 | 33.91234 | -118.46268 | 6531 ft | 150 kts | 210° |
| 2026-04-24 03:02 | 33.90317 | -118.46854 | 7524 ft | 156 kts | 206° |
| 2026-04-24 03:03 | 33.89275 | -118.47456 | 8246 ft | 175 kts | 209° |
| 2026-04-24 03:03 | 33.88202 | -118.48241 | 9057 ft | 186 kts | 214° |
| 2026-04-24 03:03 | 33.87135 | -118.49166 | 9921 ft | 192 kts | 218° |
| 2026-04-24 03:03 | 33.86053 | -118.50130 | 10809 ft | 196 kts | 216° |
| 2026-04-24 03:04 | 33.84884 | -118.50985 | 11682 ft | 198 kts | 207° |